Time;durP1;ratioP1;P1;durP2;ratioP2;P2;SDS_P1;SDS_P2;PMS_P1;PMS_P2;Temp;Humidity;BMP_temperature;BMP_pressure;BME280_temperature;BME280_humidity;BME280_pressure;Samples;Min_cycle;Max_cycle;Signal;HPM_P1;HPM_P2
2019/07/19 00:02:37;;;;;;;2.95;2.48;;;;;;;21.55;54.34;100307.52;;;;-59
2019/07/19 00:05:37;;;;;;;2.87;2.62;;;;;;;21.54;54.33;100312.59;;;;-58
2019/07/19 00:08:37;;;;;;;2.91;2.70;;;;;;;21.53;54.31;100310.06;;;;-58
2019/07/19 00:11:37;;;;;;;3.37;2.61;;;;;;;21.53;54.34;100308.12;;;;-58
2019/07/19 00:14:37;;;;;;;3.02;2.74;;;;;;;21.53;54.36;100306.70;;;;-58
2019/07/19 00:17:37;;;;;;;3.96;2.72;;;;;;;21.54;54.33;100304.45;;;;-59
2019/07/19 00:20:37;;;;;;;3.69;2.84;;;;;;;21.53;54.32;100304.08;;;;-58
2019/07/19 00:23:37;;;;;;;3.11;2.60;;;;;;;21.52;54.32;100303.64;;;;-59
2019/07/19 00:26:37;;;;;;;2.78;2.53;;;;;;;21.53;54.35;100305.26;;;;-58
2019/07/19 00:29:37;;;;;;;4.65;2.85;;;;;;;21.53;54.35;100302.41;;;;-58
2019/07/19 00:32:37;;;;;;;3.40;2.83;;;;;;;21.52;54.33;100302.70;;;;-58
2019/07/19 00:35:37;;;;;;;3.00;2.70;;;;;;;21.52;54.35;100301.36;;;;-58
2019/07/19 00:38:37;;;;;;;2.87;2.60;;;;;;;21.53;54.32;100301.56;;;;-59
2019/07/19 00:41:37;;;;;;;3.21;2.65;;;;;;;21.52;54.33;100305.90;;;;-58
2019/07/19 00:44:37;;;;;;;3.77;2.58;;;;;;;21.52;54.31;100305.63;;;;-58
2019/07/19 00:47:37;;;;;;;3.21;2.70;;;;;;;21.52;54.34;100303.95;;;;-58
2019/07/19 00:50:37;;;;;;;2.70;2.50;;;;;;;21.51;54.33;100302.00;;;;-58
2019/07/19 00:53:37;;;;;;;2.79;2.50;;;;;;;21.51;54.29;100308.31;;;;-58
2019/07/19 00:56:37;;;;;;;2.69;2.47;;;;;;;21.51;54.32;100304.63;;;;-58
2019/07/19 00:59:37;;;;;;;3.08;2.63;;;;;;;21.51;54.31;100302.17;;;;-59
2019/07/19 01:02:37;;;;;;;2.81;2.57;;;;;;;21.52;54.29;100301.20;;;;-58
2019/07/19 01:05:37;;;;;;;2.72;2.52;;;;;;;21.51;54.31;100298.97;;;;-58
2019/07/19 01:08:37;;;;;;;2.95;2.59;;;;;;;21.50;54.27;100299.21;;;;-58
2019/07/19 01:11:37;;;;;;;3.32;2.57;;;;;;;21.51;54.29;100300.98;;;;-58
2019/07/19 01:14:37;;;;;;;2.85;2.55;;;;;;;21.51;54.33;100299.48;;;;-60
2019/07/19 01:17:37;;;;;;;2.86;2.59;;;;;;;21.51;54.31;100300.83;;;;-59
2019/07/19 01:20:37;;;;;;;2.77;2.48;;;;;;;21.51;54.32;100302.27;;;;-59
2019/07/19 01:23:37;;;;;;;2.74;2.49;;;;;;;21.50;54.26;100298.70;;;;-59
2019/07/19 01:26:37;;;;;;;2.87;2.53;;;;;;;21.50;54.34;100300.63;;;;-59
2019/07/19 01:29:37;;;;;;;3.02;2.68;;;;;;;21.50;54.29;100302.97;;;;-58
2019/07/19 01:32:37;;;;;;;2.74;2.36;;;;;;;21.50;54.30;100305.26;;;;-59
2019/07/19 01:35:37;;;;;;;2.71;2.50;;;;;;;21.49;54.31;100305.73;;;;-58
2019/07/19 01:38:37;;;;;;;2.71;2.51;;;;;;;21.49;54.31;100307.81;;;;-58
2019/07/19 01:41:37;;;;;;;2.77;2.55;;;;;;;21.50;54.30;100312.31;;;;-59
2019/07/19 01:44:37;;;;;;;2.80;2.54;;;;;;;21.49;54.33;100313.62;;;;-60
2019/07/19 01:47:37;;;;;;;2.93;2.63;;;;;;;21.49;54.31;100314.37;;;;-59
2019/07/19 01:50:37;;;;;;;2.71;2.51;;;;;;;21.49;54.31;100316.15;;;;-58
2019/07/19 01:53:37;;;;;;;2.76;2.56;;;;;;;21.49;54.26;100311.51;;;;-60
2019/07/19 01:56:37;;;;;;;2.76;2.56;;;;;;;21.49;54.32;100311.34;;;;-58
2019/07/19 01:59:37;;;;;;;2.71;2.51;;;;;;;21.48;54.33;100307.78;;;;-59
2019/07/19 02:02:37;;;;;;;2.71;2.51;;;;;;;21.49;54.30;100306.30;;;;-59
2019/07/19 02:05:37;;;;;;;2.60;2.40;;;;;;;21.48;54.31;100303.41;;;;-58
2019/07/19 02:08:37;;;;;;;3.06;2.65;;;;;;;21.48;54.32;100303.34;;;;-58
2019/07/19 02:11:37;;;;;;;2.75;2.53;;;;;;;21.48;54.33;100302.67;;;;-59
2019/07/19 02:14:37;;;;;;;2.66;2.44;;;;;;;21.47;54.31;100303.38;;;;-59
2019/07/19 02:17:37;;;;;;;2.65;2.45;;;;;;;21.48;54.30;100303.91;;;;-58
2019/07/19 02:20:37;;;;;;;2.62;2.42;;;;;;;21.48;54.32;100307.61;;;;-59
2019/07/19 02:23:37;;;;;;;2.57;2.37;;;;;;;21.47;54.31;100307.75;;;;-59
2019/07/19 02:26:37;;;;;;;2.50;2.30;;;;;;;21.48;54.36;100311.70;;;;-58
2019/07/19 02:29:37;;;;;;;2.53;2.33;;;;;;;21.47;54.31;100306.64;;;;-60
2019/07/19 02:32:37;;;;;;;2.62;2.40;;;;;;;21.47;54.34;100310.50;;;;-58
2019/07/19 02:35:37;;;;;;;2.54;2.34;;;;;;;21.47;54.32;100309.42;;;;-58
2019/07/19 02:38:37;;;;;;;2.69;2.33;;;;;;;21.47;54.34;100311.78;;;;-58
2019/07/19 02:41:37;;;;;;;2.63;2.43;;;;;;;21.47;54.32;100315.64;;;;-59
2019/07/19 02:44:37;;;;;;;2.50;2.30;;;;;;;21.47;54.29;100321.09;;;;-58
2019/07/19 02:47:37;;;;;;;2.53;2.33;;;;;;;21.47;54.31;100322.53;;;;-58
2019/07/19 02:50:37;;;;;;;2.60;2.40;;;;;;;21.47;54.36;100316.48;;;;-59
2019/07/19 02:53:37;;;;;;;2.48;2.28;;;;;;;21.47;54.36;100316.38;;;;-59
2019/07/19 02:56:37;;;;;;;2.75;2.55;;;;;;;21.46;54.35;100315.10;;;;-59
2019/07/19 02:59:37;;;;;;;2.50;2.30;;;;;;;21.46;54.35;100315.61;;;;-59
2019/07/19 03:02:37;;;;;;;3.10;2.40;;;;;;;21.46;54.34;100320.81;;;;-58
2019/07/19 03:05:37;;;;;;;2.60;2.40;;;;;;;21.46;54.31;100320.05;;;;-59
2019/07/19 03:08:37;;;;;;;2.85;2.56;;;;;;;21.47;54.32;100314.03;;;;-59
2019/07/19 03:11:37;;;;;;;2.50;2.30;;;;;;;21.45;54.30;100311.37;;;;-58
2019/07/19 03:14:37;;;;;;;2.60;2.40;;;;;;;21.46;54.34;100308.95;;;;-58
2019/07/19 03:17:37;;;;;;;3.07;2.77;;;;;;;21.46;54.28;100310.97;;;;-58
2019/07/19 03:20:37;;;;;;;2.63;2.43;;;;;;;21.46;54.31;100312.48;;;;-58
2019/07/19 03:23:37;;;;;;;2.65;2.45;;;;;;;21.45;54.31;100313.22;;;;-59
2019/07/19 03:26:37;;;;;;;2.91;2.55;;;;;;;21.45;54.36;100313.39;;;;-58
2019/07/19 03:29:37;;;;;;;2.77;2.50;;;;;;;21.45;54.31;100317.92;;;;-58
2019/07/19 03:32:37;;;;;;;2.70;2.36;;;;;;;21.45;54.37;100320.61;;;;-58
2019/07/19 03:35:37;;;;;;;3.33;2.45;;;;;;;21.44;54.28;100314.87;;;;-60
2019/07/19 03:38:37;;;;;;;2.40;2.20;;;;;;;21.45;54.32;100321.22;;;;-60
2019/07/19 03:41:37;;;;;;;2.61;2.41;;;;;;;21.45;54.31;100321.22;;;;-59
2019/07/19 03:44:37;;;;;;;2.47;2.27;;;;;;;21.45;54.30;100323.88;;;;-58
2019/07/19 03:47:37;;;;;;;2.60;2.40;;;;;;;21.44;54.31;100330.49;;;;-59
2019/07/19 03:50:37;;;;;;;2.52;2.32;;;;;;;21.45;54.33;100331.53;;;;-58
2019/07/19 03:53:37;;;;;;;2.50;2.30;;;;;;;21.45;54.31;100332.88;;;;-59
2019/07/19 03:56:37;;;;;;;2.61;2.41;;;;;;;21.45;54.31;100357.58;;;;-58
2019/07/19 03:59:37;;;;;;;6.37;5.33;;;;;;;21.39;59.64;100333.58;;;;-58
2019/07/19 04:02:37;;;;;;;9.07;6.85;;;;;;;21.30;61.70;100331.45;;;;-58
2019/07/19 04:05:37;;;;;;;8.72;7.54;;;;;;;21.27;62.51;100337.97;;;;-58
2019/07/19 04:08:37;;;;;;;10.65;7.88;;;;;;;21.24;63.08;100338.56;;;;-60
2019/07/19 04:11:37;;;;;;;9.42;7.83;;;;;;;21.23;63.12;100336.08;;;;-58
2019/07/19 04:14:37;;;;;;;8.69;7.79;;;;;;;21.19;63.82;100335.87;;;;-58
2019/07/19 04:17:37;;;;;;;10.79;7.91;;;;;;;21.22;62.93;100331.44;;;;-58
2019/07/19 04:20:37;;;;;;;9.59;7.53;;;;;;;21.28;62.19;100330.30;;;;-59
2019/07/19 04:23:37;;;;;;;13.05;7.48;;;;;;;21.35;61.13;100333.64;;;;-58
2019/07/19 04:26:37;;;;;;;12.61;7.13;;;;;;;21.38;60.43;100330.99;;;;-58
2019/07/19 04:29:37;;;;;;;11.38;7.14;;;;;;;21.40;60.01;100329.62;;;;-59
2019/07/19 04:32:37;;;;;;;10.81;7.19;;;;;;;21.42;59.54;100331.77;;;;-58
2019/07/19 04:35:37;;;;;;;8.46;6.98;;;;;;;21.43;59.24;100335.33;;;;-58
2019/07/19 04:38:37;;;;;;;8.89;6.75;;;;;;;21.44;58.96;100336.70;;;;-60
2019/07/19 04:41:37;;;;;;;7.93;6.51;;;;;;;21.44;58.79;100335.37;;;;-59
2019/07/19 04:44:37;;;;;;;8.68;6.71;;;;;;;21.45;58.58;100338.25;;;;-45
2019/07/19 04:47:37;;;;;;;7.20;6.50;;;;;;;21.45;58.35;100335.50;;;;-49
2019/07/19 04:50:37;;;;;;;6.96;6.28;;;;;;;21.45;58.22;100332.88;;;;-59
2019/07/19 04:53:37;;;;;;;8.92;6.40;;;;;;;21.45;58.05;100335.06;;;;-45
2019/07/19 04:56:37;;;;;;;7.91;6.25;;;;;;;21.45;57.90;100339.59;;;;-49
2019/07/19 04:59:37;;;;;;;9.09;6.38;;;;;;;21.46;57.80;100344.34;;;;-58
2019/07/19 05:02:36;;;;;;;7.55;6.43;;;;;;;21.46;57.70;100342.99;;;;-46
2019/07/19 05:05:37;;;;;;;6.95;5.89;;;;;;;21.46;57.62;100344.84;;;;-58
2019/07/19 05:08:36;;;;;;;7.45;6.23;;;;;;;21.46;57.50;100350.95;;;;-59
2019/07/19 05:11:36;;;;;;;7.27;6.08;;;;;;;21.45;57.66;100347.27;;;;-49
2019/07/19 05:14:37;;;;;;;7.05;6.03;;;;;;;21.48;57.62;100350.80;;;;-49
2019/07/19 05:17:37;;;;;;;8.83;5.84;;;;;;;21.49;57.38;100347.80;;;;-46
2019/07/19 05:20:37;;;;;;;6.73;5.93;;;;;;;21.53;57.33;100351.88;;;;-47
2019/07/19 05:23:37;;;;;;;10.11;6.04;;;;;;;21.57;57.46;100351.11;;;;-47
2019/07/19 05:26:37;;;;;;;8.62;6.21;;;;;;;21.58;57.39;100353.80;;;;-60
2019/07/19 05:29:36;;;;;;;7.55;6.07;;;;;;;21.61;57.30;100355.58;;;;-61
2019/07/19 05:32:37;;;;;;;6.42;5.65;;;;;;;21.62;57.01;100355.98;;;;-56
2019/07/19 05:35:37;;;;;;;17.70;5.90;;;;;;;21.62;57.38;100360.95;;;;-48
2019/07/19 05:38:38;;;;;;;10.45;5.79;;;;;;;21.64;57.23;100360.11;;;;-47
2019/07/19 05:41:37;;;;;;;6.84;5.58;;;;;;;21.67;57.03;100361.80;;;;-48
2019/07/19 05:44:37;;;;;;;7.57;5.78;;;;;;;21.68;57.10;100364.02;;;;-47
2019/07/19 05:47:37;;;;;;;6.48;5.58;;;;;;;21.69;57.16;100365.06;;;;-50
2019/07/19 05:50:37;;;;;;;6.16;5.37;;;;;;;21.71;57.03;100364.79;;;;-52
2019/07/19 05:53:37;;;;;;;10.31;5.50;;;;;;;21.73;57.04;100365.30;;;;-52
2019/07/19 05:56:37;;;;;;;8.55;5.61;;;;;;;21.74;57.02;100370.38;;;;-52
2019/07/19 05:59:37;;;;;;;7.64;5.39;;;;;;;21.75;57.04;100376.42;;;;-57
2019/07/19 06:02:37;;;;;;;8.01;5.36;;;;;;;21.77;57.00;100386.41;;;;-55
2019/07/19 06:05:37;;;;;;;6.33;5.51;;;;;;;21.77;56.89;100401.30;;;;-51
2019/07/19 06:08:37;;;;;;;6.63;5.05;;;;;;;21.79;57.03;100396.39;;;;-48
2019/07/19 06:11:37;;;;;;;5.77;5.20;;;;;;;21.79;56.73;100399.19;;;;-49
2019/07/19 06:14:37;;;;;;;7.36;5.41;;;;;;;21.80;56.75;100395.86;;;;-46
2019/07/19 06:17:36;;;;;;;6.47;5.05;;;;;;;21.81;56.68;100399.32;;;;-50
2019/07/19 06:20:37;;;;;;;8.49;5.67;;;;;;;21.82;56.65;100407.86;;;;-56
2019/07/19 06:23:37;;;;;;;7.86;5.24;;;;;;;21.83;56.58;100409.81;;;;-52
2019/07/19 06:26:37;;;;;;;10.58;5.33;;;;;;;21.84;56.56;100407.77;;;;-47
2019/07/19 06:29:37;;;;;;;5.81;5.10;;;;;;;21.85;56.57;100412.06;;;;-61
2019/07/19 06:32:37;;;;;;;9.34;5.57;;;;;;;21.86;56.55;100412.84;;;;-51
2019/07/19 06:35:37;;;;;;;9.99;5.03;;;;;;;21.86;56.55;100414.95;;;;-51
2019/07/19 06:38:37;;;;;;;6.79;5.25;;;;;;;21.87;56.56;100422.12;;;;-47
2019/07/19 06:41:38;;;;;;;7.60;5.05;;;;;;;21.89;56.49;100427.23;;;;-50
2019/07/19 06:44:37;;;;;;;10.13;5.13;;;;;;;21.89;56.54;100427.67;;;;-47
2019/07/19 06:47:37;;;;;;;6.45;5.13;;;;;;;21.90;56.56;100429.55;;;;-46
2019/07/19 06:50:37;;;;;;;7.53;5.06;;;;;;;21.91;56.50;100436.75;;;;-48
2019/07/19 07:00:51;;;;;;;6.27;5.12;;;;;;;21.97;56.34;100452.62;;;;-49
2019/07/19 07:03:51;;;;;;;6.77;4.95;;;;;;;21.96;56.31;100452.45;;;;-59
2019/07/19 07:06:51;;;;;;;7.42;4.99;;;;;;;21.97;56.36;100453.27;;;;-57
2019/07/19 07:09:50;;;;;;;5.53;4.70;;;;;;;21.99;56.20;100454.88;;;;-57
2019/07/19 07:17:10;;;;;;;7.22;4.97;;;;;;;22.00;56.18;100449.47;;;;-48
2019/07/19 07:20:10;;;;;;;6.32;4.81;;;;;;;22.00;56.04;100444.70;;;;-49
2019/07/19 07:23:09;;;;;;;8.49;4.73;;;;;;;22.00;56.11;100449.41;;;;-48
2019/07/19 07:26:09;;;;;;;7.18;4.91;;;;;;;22.01;56.12;100455.39;;;;-46
2019/07/19 07:29:09;;;;;;;8.03;4.65;;;;;;;22.01;56.13;100453.38;;;;-47
2019/07/19 07:32:09;;;;;;;7.77;4.71;;;;;;;22.02;56.04;100453.64;;;;-49
2019/07/19 07:35:10;;;;;;;8.28;4.64;;;;;;;22.01;55.94;100461.34;;;;-46
2019/07/19 07:38:09;;;;;;;7.37;4.76;;;;;;;22.02;55.99;100458.02;;;;-44
2019/07/19 07:41:10;;;;;;;4.82;4.33;;;;;;;22.03;56.09;100458.22;;;;-49
2019/07/19 07:44:09;;;;;;;5.94;4.83;;;;;;;22.02;56.00;100461.55;;;;-52
2019/07/19 07:47:10;;;;;;;6.27;4.43;;;;;;;22.00;55.93;100467.23;;;;-52
2019/07/19 07:50:10;;;;;;;7.23;4.51;;;;;;;21.99;56.01;100464.41;;;;-52
2019/07/19 07:53:10;;;;;;;6.58;4.59;;;;;;;21.98;56.00;100466.28;;;;-52
2019/07/19 07:56:09;;;;;;;6.09;4.78;;;;;;;21.95;55.94;100464.80;;;;-52
2019/07/19 07:59:09;;;;;;;5.89;4.60;;;;;;;21.95;55.89;100461.50;;;;-50
2019/07/19 08:02:09;;;;;;;5.20;4.53;;;;;;;21.93;55.87;100458.84;;;;-50
2019/07/19 08:05:10;;;;;;;5.51;4.73;;;;;;;21.94;55.84;100460.97;;;;-55
2019/07/19 08:08:09;;;;;;;5.26;4.39;;;;;;;21.93;55.77;100464.23;;;;-56
2019/07/19 08:11:10;;;;;;;5.99;4.45;;;;;;;21.91;55.85;100463.89;;;;-56
2019/07/19 08:14:10;;;;;;;5.97;4.50;;;;;;;21.90;55.78;100458.20;;;;-56
2019/07/19 08:17:10;;;;;;;5.49;4.59;;;;;;;21.90;55.72;100455.95;;;;-56
2019/07/19 08:20:10;;;;;;;6.45;4.36;;;;;;;21.89;55.71;100454.14;;;;-56
2019/07/19 08:23:10;;;;;;;5.41;4.61;;;;;;;21.88;55.69;100455.81;;;;-61
2019/07/19 08:26:10;;;;;;;7.57;4.48;;;;;;;21.89;55.75;100454.07;;;;-59
2019/07/19 08:29:10;;;;;;;5.84;4.22;;;;;;;21.90;55.64;100455.55;;;;-55
2019/07/19 08:32:10;;;;;;;5.55;4.46;;;;;;;21.91;55.75;100455.82;;;;-59
2019/07/19 08:35:09;;;;;;;7.03;4.39;;;;;;;21.92;55.84;100460.46;;;;-46
2019/07/19 08:38:09;;;;;;;6.71;4.69;;;;;;;21.91;55.72;100459.59;;;;-46
2019/07/19 08:41:09;;;;;;;6.57;4.66;;;;;;;21.91;55.69;100458.98;;;;-46
2019/07/19 08:44:09;;;;;;;6.15;4.41;;;;;;;21.91;55.84;100467.55;;;;-47
2019/07/19 08:47:09;;;;;;;7.35;4.54;;;;;;;21.95;55.78;100471.05;;;;-47
2019/07/19 08:50:09;;;;;;;6.79;4.39;;;;;;;21.96;55.79;100472.97;;;;-48
2019/07/19 08:53:09;;;;;;;8.87;4.41;;;;;;;21.98;55.80;100479.54;;;;-48
2019/07/19 08:56:09;;;;;;;7.66;4.57;;;;;;;22.00;55.77;100481.32;;;;-47
2019/07/19 08:59:10;;;;;;;8.28;4.47;;;;;;;22.01;55.76;100477.59;;;;-47
2019/07/19 09:02:09;;;;;;;5.04;4.53;;;;;;;22.01;55.76;100480.11;;;;-48
2019/07/19 09:05:10;;;;;;;5.96;4.38;;;;;;;22.03;55.76;100483.27;;;;-49
2019/07/19 09:08:09;;;;;;;8.01;4.34;;;;;;;22.00;55.65;100481.32;;;;-51
2019/07/19 09:11:10;;;;;;;6.68;4.21;;;;;;;22.00;55.73;100476.31;;;;-46
2019/07/19 09:14:10;;;;;;;6.20;4.51;;;;;;;22.01;55.69;100476.24;;;;-44
2019/07/19 09:17:09;;;;;;;8.49;4.25;;;;;;;22.01;55.67;100474.30;;;;-46
2019/07/19 09:20:09;;;;;;;9.43;4.59;;;;;;;22.02;55.70;100473.48;;;;-57
2019/07/19 09:23:09;;;;;;;8.77;4.30;;;;;;;22.03;55.75;100470.19;;;;-58
2019/07/19 09:26:09;;;;;;;10.36;4.49;;;;;;;22.03;55.76;100475.23;;;;-60
2019/07/19 09:29:09;;;;;;;6.33;4.49;;;;;;;22.05;55.83;100476.45;;;;-51
2019/07/19 09:32:09;;;;;;;7.29;4.57;;;;;;;22.05;55.70;100475.54;;;;-51
2019/07/19 09:35:09;;;;;;;9.27;4.41;;;;;;;22.05;55.75;100474.63;;;;-52
2019/07/19 09:38:09;;;;;;;12.21;4.58;;;;;;;22.05;55.93;100470.83;;;;-53
2019/07/19 09:41:10;;;;;;;6.96;4.31;;;;;;;22.06;55.87;100468.00;;;;-50
2019/07/19 09:44:09;;;;;;;8.65;4.53;;;;;;;22.07;55.81;100470.73;;;;-51
2019/07/19 09:47:09;;;;;;;8.53;4.65;;;;;;;22.08;55.88;100474.23;;;;-52
2019/07/19 09:50:10;;;;;;;12.81;4.14;;;;;;;22.05;55.56;100471.84;;;;-52
2019/07/19 09:53:10;;;;;;;8.93;4.22;;;;;;;22.03;55.73;100476.41;;;;-53
2019/07/19 09:56:09;;;;;;;8.52;4.11;;;;;;;22.01;55.80;100477.42;;;;-59
2019/07/19 09:59:09;;;;;;;7.01;4.29;;;;;;;21.99;55.72;100471.73;;;;-60
2019/07/19 10:02:09;;;;;;;7.50;4.11;;;;;;;21.99;55.79;100476.52;;;;-62
2019/07/19 10:05:09;;;;;;;6.89;4.13;;;;;;;21.98;55.70;100480.45;;;;-62
2019/07/19 10:08:09;;;;;;;8.54;4.15;;;;;;;21.96;55.68;100478.29;;;;-49
2019/07/19 10:11:09;;;;;;;8.24;4.13;;;;;;;21.95;55.69;100474.52;;;;-62
2019/07/19 10:14:09;;;;;;;5.95;4.07;;;;;;;21.94;55.68;100476.03;;;;-60
2019/07/19 10:17:09;;;;;;;6.06;4.15;;;;;;;21.93;55.64;100480.61;;;;-60
2019/07/19 10:20:09;;;;;;;8.50;3.86;;;;;;;21.91;55.66;100477.61;;;;-63
2019/07/19 10:23:09;;;;;;;4.51;3.87;;;;;;;21.90;55.69;100475.86;;;;-61
2019/07/19 10:26:09;;;;;;;7.65;4.34;;;;;;;21.89;55.68;100468.47;;;;-61
2019/07/19 10:29:09;;;;;;;6.91;4.09;;;;;;;21.89;55.63;100468.30;;;;-60
2019/07/19 10:32:09;;;;;;;6.03;4.21;;;;;;;21.88;55.65;100467.42;;;;-61
2019/07/19 10:35:09;;;;;;;8.68;4.25;;;;;;;21.87;55.75;100460.48;;;;-57
2019/07/19 10:38:09;;;;;;;8.74;4.25;;;;;;;21.87;55.56;100460.56;;;;-58
2019/07/19 10:41:09;;;;;;;7.79;4.04;;;;;;;21.86;55.63;100459.69;;;;-57
2019/07/19 10:44:10;;;;;;;5.54;3.91;;;;;;;21.85;55.66;100460.75;;;;-57
2019/07/19 10:47:09;;;;;;;8.01;4.14;;;;;;;21.85;55.65;100463.69;;;;-59
2019/07/19 10:50:09;;;;;;;5.13;4.08;;;;;;;21.84;55.60;100458.44;;;;-57
2019/07/19 10:53:09;;;;;;;5.76;3.91;;;;;;;21.84;55.62;100458.84;;;;-59
2019/07/19 10:56:09;;;;;;;5.93;3.99;;;;;;;21.83;55.62;100462.50;;;;-57
2019/07/19 10:59:09;;;;;;;6.40;3.99;;;;;;;21.83;55.61;100451.23;;;;-57
2019/07/19 11:02:09;;;;;;;7.99;4.42;;;;;;;21.82;55.55;100457.63;;;;-57
2019/07/19 11:05:10;;;;;;;5.15;3.88;;;;;;;21.83;55.59;100453.36;;;;-57
2019/07/19 11:08:09;;;;;;;7.25;3.90;;;;;;;21.82;55.55;100448.95;;;;-59
2019/07/19 11:11:09;;;;;;;5.79;4.19;;;;;;;21.81;55.53;100443.70;;;;-57
2019/07/19 11:14:10;;;;;;;5.37;3.93;;;;;;;21.81;55.51;100443.20;;;;-58
2019/07/19 11:17:09;;;;;;;4.91;3.80;;;;;;;21.80;55.46;100443.33;;;;-58
2019/07/19 11:20:09;;;;;;;4.45;3.69;;;;;;;21.80;55.49;100438.29;;;;-57
2019/07/19 11:23:09;;;;;;;5.43;3.90;;;;;;;21.80;55.48;100434.26;;;;-57
2019/07/19 11:26:09;;;;;;;5.01;3.94;;;;;;;21.79;55.50;100437.75;;;;-57
2019/07/19 11:29:09;;;;;;;4.98;3.81;;;;;;;21.78;55.48;100436.64;;;;-57
2019/07/19 11:32:10;;;;;;;5.17;3.88;;;;;;;21.78;55.47;100436.47;;;;-57
2019/07/19 11:35:09;;;;;;;4.22;3.62;;;;;;;21.78;55.47;100442.52;;;;-57
2019/07/19 11:38:09;;;;;;;5.29;3.92;;;;;;;21.79;55.44;100441.95;;;;-57
2019/07/19 11:41:09;;;;;;;3.99;3.67;;;;;;;21.78;55.48;100440.23;;;;-57
2019/07/19 11:44:09;;;;;;;4.65;4.05;;;;;;;21.77;55.51;100434.76;;;;-58
2019/07/19 11:47:10;;;;;;;4.27;3.81;;;;;;;21.77;55.50;100430.95;;;;-57
2019/07/19 11:50:09;;;;;;;5.31;3.72;;;;;;;21.76;55.46;100420.77;;;;-58
2019/07/19 11:53:09;;;;;;;4.77;3.68;;;;;;;21.76;55.44;100428.06;;;;-58
2019/07/19 11:56:09;;;;;;;4.87;3.91;;;;;;;21.76;55.40;100428.00;;;;-57
2019/07/19 11:59:09;;;;;;;4.75;3.64;;;;;;;21.75;55.45;100425.44;;;;-58
2019/07/19 12:02:09;;;;;;;4.07;3.66;;;;;;;21.76;55.46;100420.77;;;;-58
2019/07/19 12:05:09;;;;;;;4.45;3.91;;;;;;;21.75;55.42;100421.98;;;;-46
2019/07/19 12:08:09;;;;;;;4.41;3.93;;;;;;;21.75;55.41;100423.09;;;;-47
2019/07/19 12:11:09;;;;;;;4.17;3.73;;;;;;;21.74;55.42;100423.73;;;;-48
2019/07/19 12:14:09;;;;;;;4.45;3.71;;;;;;;21.74;55.41;100430.05;;;;-47
2019/07/19 12:17:09;;;;;;;6.69;3.72;;;;;;;21.74;55.42;100434.98;;;;-47
2019/07/19 12:20:09;;;;;;;5.57;3.69;;;;;;;21.74;55.40;100434.42;;;;-48
2019/07/19 12:23:09;;;;;;;3.95;3.59;;;;;;;21.74;55.40;100431.36;;;;-57
2019/07/19 12:26:09;;;;;;;4.07;3.67;;;;;;;21.74;55.41;100425.14;;;;-58
2019/07/19 12:29:09;;;;;;;5.10;3.71;;;;;;;21.73;55.37;100421.67;;;;-51
2019/07/19 12:32:09;;;;;;;4.45;3.83;;;;;;;21.73;55.44;100433.70;;;;-58
2019/07/19 12:35:09;;;;;;;3.91;3.37;;;;;;;21.73;55.41;100439.73;;;;-47
2019/07/19 12:38:09;;;;;;;4.08;3.71;;;;;;;21.73;55.40;100444.44;;;;-47
2019/07/19 12:41:09;;;;;;;4.26;3.64;;;;;;;21.72;55.40;100443.42;;;;-47
2019/07/19 12:44:09;;;;;;;5.87;3.43;;;;;;;21.72;55.40;100436.67;;;;-47
2019/07/19 12:47:09;;;;;;;4.42;3.55;;;;;;;21.72;55.37;100429.54;;;;-49
2019/07/19 12:50:09;;;;;;;3.75;3.45;;;;;;;21.71;55.40;100430.28;;;;-47
2019/07/19 12:53:09;;;;;;;5.97;3.49;;;;;;;21.72;55.37;100429.44;;;;-47
2019/07/19 12:56:09;;;;;;;3.65;3.35;;;;;;;21.71;55.39;100426.81;;;;-47
2019/07/19 12:59:09;;;;;;;3.75;3.45;;;;;;;21.71;55.38;100432.80;;;;-46
2019/07/19 13:02:09;;;;;;;3.92;3.52;;;;;;;21.71;55.39;100436.40;;;;-47
2019/07/19 13:05:09;;;;;;;3.89;3.23;;;;;;;21.71;55.41;100433.14;;;;-47
2019/07/19 13:08:09;;;;;;;3.85;3.34;;;;;;;21.71;55.41;100438.58;;;;-47
2019/07/19 13:11:09;;;;;;;5.30;3.53;;;;;;;21.70;55.38;100437.70;;;;-57
2019/07/19 13:14:09;;;;;;;5.99;3.65;;;;;;;21.70;55.37;100441.07;;;;-57
2019/07/19 13:17:09;;;;;;;3.88;3.49;;;;;;;21.70;55.42;100442.84;;;;-57
2019/07/19 13:20:09;;;;;;;4.07;3.55;;;;;;;21.70;55.40;100444.94;;;;-59
2019/07/19 13:23:09;;;;;;;3.69;3.33;;;;;;;21.70;55.38;100446.88;;;;-57
2019/07/19 13:26:09;;;;;;;3.64;3.34;;;;;;;21.70;55.33;100444.33;;;;-57
2019/07/19 13:29:09;;;;;;;4.23;3.37;;;;;;;21.69;55.36;100442.14;;;;-57
2019/07/19 13:32:09;;;;;;;3.71;3.41;;;;;;;21.69;55.38;100442.38;;;;-58
2019/07/19 13:35:09;;;;;;;3.55;3.25;;;;;;;21.69;55.38;100441.77;;;;-57
2019/07/19 13:38:09;;;;;;;4.22;3.21;;;;;;;21.69;55.33;100441.97;;;;-58
2019/07/19 13:41:09;;;;;;;3.59;3.29;;;;;;;21.68;55.33;100441.17;;;;-57
2019/07/19 13:44:09;;;;;;;3.63;3.22;;;;;;;21.68;55.38;100440.42;;;;-57
2019/07/19 13:47:09;;;;;;;4.49;3.46;;;;;;;21.68;55.36;100443.95;;;;-58
2019/07/19 13:50:09;;;;;;;4.50;3.19;;;;;;;21.69;55.36;100449.84;;;;-57
2019/07/19 13:53:09;;;;;;;4.27;3.35;;;;;;;21.67;55.35;100447.69;;;;-57
2019/07/19 13:56:09;;;;;;;4.39;3.22;;;;;;;21.68;55.33;100442.84;;;;-57
2019/07/19 13:59:09;;;;;;;3.61;3.28;;;;;;;21.67;55.37;100441.63;;;;-58
2019/07/19 14:02:09;;;;;;;4.79;3.49;;;;;;;21.67;55.35;100433.00;;;;-58
2019/07/19 14:05:09;;;;;;;3.63;3.28;;;;;;;21.67;55.33;100436.77;;;;-58
2019/07/19 14:08:09;;;;;;;3.54;3.24;;;;;;;21.68;55.37;100438.71;;;;-57
2019/07/19 14:11:09;;;;;;;3.37;3.07;;;;;;;21.67;55.34;100436.02;;;;-59
2019/07/19 14:14:09;;;;;;;3.97;3.19;;;;;;;21.67;55.35;100439.22;;;;-58
2019/07/19 14:17:09;;;;;;;4.38;3.14;;;;;;;21.66;55.35;100429.16;;;;-47
2019/07/19 14:20:09;;;;;;;3.63;3.03;;;;;;;21.66;55.32;100426.67;;;;-47
2019/07/19 14:23:09;;;;;;;3.79;3.32;;;;;;;21.67;55.32;100426.91;;;;-46
2019/07/19 14:26:09;;;;;;;3.39;3.09;;;;;;;21.66;55.35;100426.74;;;;-47
2019/07/19 14:29:09;;;;;;;3.82;3.29;;;;;;;21.67;55.29;100423.21;;;;-47
2019/07/19 14:32:09;;;;;;;4.11;3.21;;;;;;;21.66;55.32;100419.92;;;;-47
2019/07/19 14:35:09;;;;;;;3.35;3.05;;;;;;;21.66;55.31;100416.39;;;;-47
2019/07/19 14:38:09;;;;;;;4.11;3.19;;;;;;;21.65;55.31;100417.80;;;;-47
2019/07/19 14:41:09;;;;;;;4.08;3.26;;;;;;;21.65;55.32;100418.64;;;;-47
2019/07/19 14:44:09;;;;;;;3.60;3.26;;;;;;;21.65;55.30;100420.32;;;;-47
2019/07/19 14:47:10;;;;;;;3.60;3.06;;;;;;;21.65;55.32;100419.95;;;;-47
2019/07/19 14:50:09;;;;;;;3.29;2.96;;;;;;;21.65;55.29;100413.77;;;;-47
2019/07/19 14:53:09;;;;;;;3.30;3.00;;;;;;;21.65;55.27;100412.92;;;;-47
2019/07/19 14:56:09;;;;;;;3.51;3.21;;;;;;;21.65;55.30;100412.31;;;;-47
2019/07/19 14:59:09;;;;;;;3.29;2.95;;;;;;;21.65;55.27;100412.48;;;;-47
2019/07/19 15:02:09;;;;;;;3.85;3.01;;;;;;;21.66;55.28;100418.30;;;;-47
2019/07/19 15:05:09;;;;;;;3.17;2.91;;;;;;;21.65;55.28;100416.63;;;;-46
2019/07/19 15:08:09;;;;;;;3.55;3.21;;;;;;;21.65;55.30;100414.17;;;;-47
2019/07/19 15:11:09;;;;;;;4.25;3.12;;;;;;;21.64;55.29;100418.09;;;;-47
2019/07/19 15:14:09;;;;;;;3.31;2.99;;;;;;;21.64;55.28;100416.48;;;;-47
2019/07/19 15:17:09;;;;;;;3.61;2.80;;;;;;;21.64;55.27;100418.67;;;;-47
2019/07/19 15:20:09;;;;;;;3.50;3.20;;;;;;;21.64;55.29;100416.25;;;;-47
2019/07/19 15:23:09;;;;;;;3.41;2.93;;;;;;;21.65;55.25;100417.59;;;;-47
2019/07/19 15:26:09;;;;;;;2.91;2.71;;;;;;;21.64;55.26;100416.98;;;;-47
2019/07/19 15:29:09;;;;;;;3.29;2.93;;;;;;;21.64;55.29;100416.39;;;;-47
2019/07/19 15:32:09;;;;;;;3.23;2.90;;;;;;;21.65;55.24;100422.41;;;;-46
2019/07/19 15:35:09;;;;;;;2.99;2.79;;;;;;;21.64;55.26;100423.04;;;;-47
2019/07/19 15:38:09;;;;;;;3.10;2.80;;;;;;;21.65;55.23;100424.99;;;;-47
2019/07/19 15:41:09;;;;;;;3.21;2.90;;;;;;;21.64;55.23;100425.39;;;;-47
2019/07/19 15:44:09;;;;;;;3.76;3.19;;;;;;;21.64;55.26;100424.38;;;;-48
2019/07/19 15:47:09;;;;;;;3.39;3.09;;;;;;;21.64;55.24;100420.08;;;;-47
2019/07/19 15:50:09;;;;;;;3.20;2.79;;;;;;;21.63;55.23;100420.52;;;;-47
2019/07/19 15:53:09;;;;;;;3.26;2.97;;;;;;;21.63;55.22;100418.73;;;;-47
2019/07/19 15:56:09;;;;;;;4.25;2.90;;;;;;;21.64;55.27;100418.50;;;;-48
2019/07/19 15:59:10;;;;;;;3.48;2.87;;;;;;;21.67;55.23;100423.82;;;;-46
2019/07/19 16:02:09;;;;;;;4.81;2.89;;;;;;;21.69;55.30;100421.63;;;;-46
2019/07/19 16:05:09;;;;;;;3.04;2.79;;;;;;;21.71;55.31;100416.97;;;;-47
2019/07/19 16:08:10;;;;;;;3.25;2.90;;;;;;;21.74;55.40;100420.43;;;;-47
2019/07/19 16:11:10;;;;;;;4.63;2.91;;;;;;;21.76;55.38;100415.39;;;;-48
2019/07/19 16:14:09;;;;;;;4.21;2.80;;;;;;;21.76;55.25;100415.80;;;;-49
2019/07/19 16:17:09;;;;;;;3.07;2.79;;;;;;;21.76;55.38;100408.39;;;;-48
2019/07/19 16:20:09;;;;;;;3.37;2.71;;;;;;;21.76;55.33;100410.17;;;;-48
2019/07/19 16:23:09;;;;;;;2.96;2.75;;;;;;;21.76;55.32;100409.91;;;;-48
2019/07/19 16:26:09;;;;;;;4.63;2.95;;;;;;;21.76;55.27;100406.88;;;;-48
2019/07/19 16:29:09;;;;;;;3.00;2.79;;;;;;;21.75;55.26;100407.28;;;;-48
2019/07/19 16:32:09;;;;;;;3.93;2.79;;;;;;;21.76;55.25;100407.32;;;;-51
2019/07/19 16:35:10;;;;;;;4.29;2.87;;;;;;;21.77;55.21;100403.99;;;;-51
2019/07/19 16:38:09;;;;;;;4.69;2.69;;;;;;;21.77;55.17;100405.50;;;;-61
2019/07/19 16:41:09;;;;;;;3.96;2.79;;;;;;;21.79;55.33;100399.86;;;;-63
2019/07/19 16:44:09;;;;;;;3.21;2.69;;;;;;;21.81;55.27;100400.77;;;;-64
2019/07/19 16:47:09;;;;;;;3.03;2.65;;;;;;;21.83;55.34;100396.80;;;;-53
2019/07/19 16:50:09;;;;;;;4.01;2.74;;;;;;;21.86;55.37;100396.36;;;;-59
2019/07/19 16:53:09;;;;;;;3.75;2.97;;;;;;;21.87;55.44;100392.03;;;;-60